ADDS TAF Data INFO
IDs: Format: Raw Decoded Include METARs

Data at: 1026 UTC 16 Aug 2018

KDHT 160953Z AUTO 20006KT 10SM CLR 18/15 A3010 RMK AO2 SLP131 T01830150

KDHT 160520Z 1606/1706 22010KT P6SM SCT060 BKN250
  FM162100 18010KT P6SM SCT250
  FM170300 VRB06KT P6SM BKN150